createdAt,value
2018-08-11T00:00:50.487Z,25.46
2018-08-11T00:01:50.469Z,25.46
2018-08-11T00:02:50.801Z,25.42
2018-08-11T00:03:50.586Z,25.41
2018-08-11T00:04:50.563Z,25.41
2018-08-11T00:05:50.643Z,25.41
2018-08-11T00:06:50.681Z,25.45
2018-08-11T00:07:50.654Z,25.39
2018-08-11T00:08:50.761Z,25.34
2018-08-11T00:09:51.023Z,25.39
2018-08-11T00:10:50.760Z,25.36
2018-08-11T00:11:50.783Z,25.46
2018-08-11T00:12:50.871Z,25.42
2018-08-11T00:13:50.862Z,25.44
2018-08-11T00:14:50.929Z,25.41
2018-08-11T00:15:51.217Z,25.46
2018-08-11T00:16:50.959Z,25.35
2018-08-11T00:17:50.989Z,25.36
2018-08-11T00:18:51.009Z,25.31
2018-08-11T00:19:51.106Z,25.31
2018-08-11T00:20:51.078Z,25.39
2018-08-11T00:21:51.461Z,25.31
2018-08-11T00:22:51.205Z,25.31
2018-08-11T00:23:51.171Z,25.23
2018-08-11T00:24:51.255Z,25.24
2018-08-11T00:25:51.287Z,25.26
2018-08-11T00:26:51.315Z,25.34
2018-08-11T00:27:51.611Z,25.24
2018-08-11T00:28:51.384Z,25.24
2018-08-11T00:29:51.363Z,25.20
2018-08-11T00:30:51.443Z,25.29
2018-08-11T00:31:51.441Z,25.26
2018-08-11T00:32:51.518Z,25.23
2018-08-11T00:33:51.490Z,25.22
2018-08-11T00:34:51.827Z,25.24
2018-08-11T00:35:51.614Z,25.29
2018-08-11T00:36:51.665Z,25.23
2018-08-11T00:37:51.619Z,25.19
2018-08-11T00:38:51.651Z,25.24
2018-08-11T00:39:51.685Z,25.09
2018-08-11T00:40:51.718Z,25.22
2018-08-11T00:41:52.102Z,25.20
2018-08-11T00:42:51.778Z,25.24
2018-08-11T00:43:51.817Z,25.19
2018-08-11T00:44:51.910Z,25.11
2018-08-11T00:45:51.932Z,25.19
2018-08-11T00:46:51.969Z,25.14
2018-08-11T00:47:51.950Z,25.08
2018-08-11T00:48:52.275Z,25.12
2018-08-11T00:49:52.065Z,25.02
2018-08-11T00:50:52.154Z,24.98
2018-08-11T00:51:52.137Z,24.97
2018-08-11T00:52:52.172Z,24.98
2018-08-11T00:53:52.195Z,25.01
2018-08-11T00:54:52.171Z,24.82
2018-08-11T00:55:52.501Z,24.66
2018-08-11T00:56:52.239Z,24.48
2018-08-11T00:57:52.322Z,24.30
2018-08-11T00:58:52.303Z,24.19
2018-08-11T00:59:52.335Z,24.11
2018-08-11T01:00:52.422Z,23.94
2018-08-11T01:01:52.445Z,23.78
2018-08-11T01:02:52.486Z,23.57
2018-08-11T01:03:52.462Z,23.64
2018-08-11T01:04:52.545Z,23.44
2018-08-11T01:05:52.521Z,23.23
2018-08-11T01:06:52.552Z,23.04
2018-08-11T01:07:52.641Z,23.03
2018-08-11T01:08:52.926Z,22.91
2018-08-11T01:09:52.650Z,22.84
2018-08-11T01:10:52.788Z,22.72
2018-08-11T01:11:52.710Z,22.70
2018-08-11T01:12:52.794Z,22.69
2018-08-11T01:13:52.823Z,22.86
2018-08-11T01:14:52.803Z,23.06
2018-08-11T01:15:53.137Z,23.01
2018-08-11T01:16:52.920Z,23.26
2018-08-11T01:17:52.898Z,23.38
2018-08-11T01:18:52.980Z,23.45
2018-08-11T01:19:52.962Z,23.59
2018-08-11T01:20:52.998Z,23.74
2018-08-11T01:21:53.026Z,23.86
2018-08-11T01:22:53.474Z,23.92
2018-08-11T01:23:53.144Z,23.97
2018-08-11T01:24:53.184Z,24.04
2018-08-11T01:25:53.162Z,24.11
2018-08-11T01:26:53.185Z,24.21
2018-08-11T01:27:53.224Z,24.21
2018-08-11T01:28:53.355Z,24.26
2018-08-11T01:29:53.337Z,24.33
2018-08-11T01:30:53.312Z,24.37
2018-08-11T01:31:53.394Z,24.44
2018-08-11T01:32:53.384Z,24.46
2018-08-11T01:33:53.413Z,24.44
2018-08-11T01:34:53.464Z,24.53
2018-08-11T01:35:53.774Z,24.63
2018-08-11T01:36:53.553Z,24.60
2018-08-11T01:37:53.589Z,24.66
2018-08-11T01:38:53.569Z,24.67
2018-08-11T01:39:53.595Z,24.77
2018-08-11T01:40:53.627Z,24.75
2018-08-11T01:41:54.015Z,24.89
2018-08-11T01:42:53.692Z,24.79
2018-08-11T01:43:53.730Z,24.93
2018-08-11T01:44:53.809Z,24.86
2018-08-11T01:45:53.805Z,24.89
2018-08-11T01:46:53.873Z,24.97
2018-08-11T01:47:54.158Z,24.94
2018-08-11T01:48:53.934Z,24.92
2018-08-11T01:49:53.920Z,24.97
2018-08-11T01:50:53.951Z,24.97
2018-08-11T01:51:54.034Z,25.02
2018-08-11T01:52:54.068Z,25.02
2018-08-11T01:53:54.043Z,25.01
2018-08-11T01:54:54.375Z,25.05
2018-08-11T01:55:54.114Z,25.02
2018-08-11T01:56:54.192Z,25.12
2018-08-11T01:57:54.227Z,25.11
2018-08-11T01:58:54.208Z,25.07
2018-08-11T01:59:54.239Z,25.05
2018-08-11T02:00:54.316Z,25.12
2018-08-11T02:01:54.607Z,25.14
2018-08-11T02:02:54.386Z,25.12
2018-08-11T02:03:54.369Z,25.12
2018-08-11T02:04:54.400Z,25.12
2018-08-11T02:05:54.427Z,25.11
2018-08-11T02:06:54.470Z,25.19
2018-08-11T02:07:54.553Z,25.26
2018-08-11T02:08:54.579Z,25.24
2018-08-11T02:09:54.565Z,25.22
2018-08-11T02:10:54.593Z,25.20
2018-08-11T02:11:54.626Z,25.22
2018-08-11T02:12:54.653Z,25.23
2018-08-11T02:13:54.755Z,25.20
2018-08-11T02:14:55.023Z,25.24
2018-08-11T02:15:54.806Z,25.24
2018-08-11T02:16:54.839Z,25.29
2018-08-11T02:17:54.867Z,25.29
2018-08-11T02:18:54.844Z,25.29
2018-08-11T02:19:54.904Z,25.27
2018-08-11T02:20:54.925Z,25.20
2018-08-11T02:21:54.999Z,25.26
2018-08-11T02:22:55.040Z,25.23
2018-08-11T02:23:55.061Z,25.30
2018-08-11T02:24:55.094Z,25.19
2018-08-11T02:25:55.123Z,25.19
2018-08-11T02:26:55.101Z,25.24
2018-08-11T02:27:55.433Z,25.23
2018-08-11T02:28:55.224Z,25.26
2018-08-11T02:29:55.213Z,25.24
2018-08-11T02:30:55.287Z,25.27
2018-08-11T02:31:55.263Z,25.35
2018-08-11T02:32:55.313Z,25.36
2018-08-11T02:33:55.637Z,25.31
2018-08-11T02:34:55.358Z,25.34
2018-08-11T02:35:55.393Z,25.41
2018-08-11T02:36:55.484Z,25.31
2018-08-11T02:37:55.507Z,25.35
2018-08-11T02:38:55.525Z,25.31
2018-08-11T02:39:55.519Z,25.44
2018-08-11T02:40:55.610Z,25.35
2018-08-11T02:41:55.591Z,25.34
2018-08-11T02:42:55.665Z,25.34
2018-08-11T02:43:55.648Z,25.35
2018-08-11T02:44:55.730Z,25.46
2018-08-11T02:45:55.718Z,25.46
2018-08-11T02:46:55.746Z,25.41
2018-08-11T02:47:55.827Z,25.41
2018-08-11T02:48:55.868Z,25.38
2018-08-11T02:49:55.846Z,25.42
2018-08-11T02:50:55.880Z,25.42
2018-08-11T02:51:56.214Z,25.44
2018-08-11T02:52:55.993Z,25.39
2018-08-11T02:53:56.027Z,25.42
2018-08-11T02:54:56.007Z,25.36
2018-08-11T02:55:56.040Z,25.36
2018-08-11T02:56:56.137Z,25.36
2018-08-11T02:57:56.107Z,25.41
2018-08-11T02:58:56.486Z,25.46
2018-08-11T02:59:56.167Z,25.34
2018-08-11T03:00:56.202Z,25.39
2018-08-11T03:01:56.232Z,25.36
2018-08-11T03:02:56.278Z,25.44
2018-08-11T03:03:56.359Z,25.39
2018-08-11T03:04:56.390Z,25.38
2018-08-11T03:06:56.695Z,25.41
2018-08-11T03:07:56.421Z,25.35
2018-08-11T03:08:56.511Z,25.42
2018-08-11T03:09:56.541Z,25.44
2018-08-11T03:10:56.527Z,25.39
2018-08-11T03:11:56.565Z,25.39
2018-08-11T03:12:56.646Z,25.39
2018-08-11T03:13:56.922Z,25.38
2018-08-11T03:14:56.702Z,25.39
2018-08-11T03:15:56.686Z,25.44
2018-08-11T03:16:56.713Z,25.42
2018-08-11T03:17:56.798Z,25.36
2018-08-11T03:18:56.827Z,25.34
2018-08-11T03:19:56.867Z,25.39
2018-08-11T03:20:57.158Z,25.45
2018-08-11T03:21:56.928Z,25.41
2018-08-11T03:22:56.909Z,25.41
2018-08-11T03:23:56.949Z,25.36
2018-08-11T03:24:57.021Z,25.46
2018-08-11T03:25:57.010Z,25.45
2018-08-11T03:26:57.094Z,25.41
2018-08-11T03:27:57.368Z,25.41
2018-08-11T03:28:57.155Z,25.39
2018-08-11T03:29:57.183Z,25.46
2018-08-11T03:30:57.167Z,25.44
2018-08-11T03:31:57.196Z,25.42
2018-08-11T03:32:57.283Z,25.39
2018-08-11T03:33:57.268Z,25.41
2018-08-11T03:34:57.594Z,25.44
2018-08-11T03:35:57.332Z,25.41
2018-08-11T03:36:57.414Z,25.46
2018-08-11T03:37:57.442Z,25.41
2018-08-11T03:38:57.430Z,25.41
2018-08-11T03:39:57.459Z,25.34
2018-08-11T03:40:57.543Z,25.44
2018-08-11T03:41:57.819Z,25.44
2018-08-11T03:42:57.611Z,25.39
2018-08-11T03:43:57.586Z,25.39
2018-08-11T03:44:57.669Z,25.41
2018-08-11T03:45:57.711Z,25.41
2018-08-11T03:46:57.686Z,25.39
2018-08-11T03:47:57.777Z,25.41
2018-08-11T03:48:58.050Z,25.45
2018-08-11T03:49:57.778Z,25.36
2018-08-11T03:50:57.811Z,25.42
2018-08-11T03:51:57.840Z,25.45
2018-08-11T03:52:57.928Z,25.44
2018-08-11T03:53:57.956Z,25.30
2018-08-11T03:54:57.959Z,25.39
2018-08-11T03:55:58.284Z,25.42
2018-08-11T03:56:58.011Z,25.44
2018-08-11T03:57:58.092Z,25.41
2018-08-11T03:58:58.074Z,25.36
2018-08-11T03:59:58.099Z,25.45
2018-08-11T04:00:58.188Z,25.44
2018-08-11T04:01:58.216Z,25.39
2018-08-11T04:02:58.499Z,25.41
2018-08-11T04:03:58.238Z,25.44
2018-08-11T04:04:58.314Z,25.41
2018-08-11T04:05:58.306Z,25.48
2018-08-11T04:06:58.378Z,25.42
2018-08-11T04:07:58.355Z,25.38
2018-08-11T04:08:58.443Z,25.38
2018-08-11T04:09:58.727Z,25.44
2018-08-11T04:10:58.503Z,25.38
2018-08-11T04:11:58.539Z,25.44
2018-08-11T04:12:58.571Z,25.48
2018-08-11T04:13:58.553Z,25.38
2018-08-11T04:14:58.582Z,25.46
2018-08-11T04:15:58.623Z,25.46
2018-08-11T04:16:58.703Z,25.39
2018-08-11T04:17:58.731Z,25.45
2018-08-11T04:18:58.710Z,25.46
2018-08-11T04:19:58.744Z,25.42
2018-08-11T04:20:58.825Z,25.42
2018-08-11T04:21:59.112Z,25.38
2018-08-11T04:22:58.843Z,25.42
2018-08-11T04:23:58.881Z,25.39
2018-08-11T04:24:58.968Z,25.48
2018-08-11T04:25:58.990Z,25.46
2018-08-11T04:26:58.970Z,25.42
2018-08-11T04:27:58.998Z,25.49
2018-08-11T04:28:59.088Z,25.41
2018-08-11T04:29:59.066Z,25.46
2018-08-11T04:30:59.171Z,25.42
2018-08-11T04:31:59.127Z,25.46
2018-08-11T04:32:59.167Z,25.45
2018-08-11T04:33:59.500Z,25.44
2018-08-11T04:34:59.229Z,25.44
2018-08-11T04:35:59.261Z,25.44
2018-08-11T04:36:59.715Z,25.41
2018-08-11T04:37:59.385Z,25.51
2018-08-11T04:38:59.353Z,25.48
2018-08-11T04:39:59.388Z,25.42
2018-08-11T04:40:59.720Z,25.45
2018-08-11T04:41:59.501Z,25.49
2018-08-11T04:42:59.533Z,25.44
2018-08-11T04:43:59.526Z,25.45
2018-08-11T04:44:59.603Z,25.45
2018-08-11T04:45:59.581Z,25.51
2018-08-11T04:46:59.637Z,25.45
2018-08-11T04:48:00.002Z,25.44
2018-08-11T04:48:59.730Z,25.44
2018-08-11T04:49:59.711Z,25.51
2018-08-11T04:50:59.747Z,25.53
2018-08-11T04:51:59.781Z,25.48
2018-08-11T04:52:59.865Z,25.48
2018-08-11T04:53:59.890Z,25.54
2018-08-11T04:55:00.193Z,25.48
2018-08-11T04:55:59.920Z,25.45
2018-08-11T04:56:59.983Z,25.48
2018-08-11T04:57:59.971Z,25.48
2018-08-11T04:59:00.054Z,25.49
2018-08-11T05:00:00.033Z,25.57
2018-08-11T05:01:00.123Z,25.51
2018-08-11T05:02:00.398Z,25.51
2018-08-11T05:03:00.133Z,25.56
2018-08-11T05:04:00.212Z,25.56
2018-08-11T05:05:00.289Z,25.49
2018-08-11T05:06:00.232Z,25.54
2018-08-11T05:07:00.257Z,25.57
2018-08-11T05:08:00.339Z,25.60
2018-08-11T05:09:00.675Z,25.59
2018-08-11T05:10:00.405Z,25.57
2018-08-11T05:11:00.384Z,25.60
2018-08-11T05:12:00.423Z,25.56
2018-08-11T05:13:00.499Z,25.60
2018-08-11T05:14:00.481Z,25.57
2018-08-11T05:15:00.584Z,25.61
2018-08-11T05:16:00.851Z,25.61
2018-08-11T05:17:00.627Z,25.67
2018-08-11T05:18:00.610Z,25.64
2018-08-11T05:19:00.654Z,25.63
2018-08-11T05:20:00.812Z,25.61
2018-08-11T05:21:00.706Z,25.66
2018-08-11T05:22:00.791Z,25.64
2018-08-11T05:23:01.077Z,25.60
2018-08-11T05:24:00.812Z,25.63
2018-08-11T05:25:00.888Z,25.63
2018-08-11T05:26:00.923Z,25.71
2018-08-11T05:27:00.906Z,25.63
2018-08-11T05:28:00.940Z,25.67
2018-08-11T05:29:01.023Z,25.66
2018-08-11T05:30:01.305Z,25.69
2018-08-11T05:31:01.081Z,25.67
2018-08-11T05:32:01.068Z,25.67
2018-08-11T05:33:01.153Z,25.67
2018-08-11T05:34:01.136Z,25.66
2018-08-11T05:35:01.166Z,25.66
2018-08-11T05:36:01.498Z,25.71
2018-08-11T05:37:01.283Z,25.67
2018-08-11T05:38:01.319Z,25.71
2018-08-11T05:39:01.294Z,25.66
2018-08-11T05:40:01.329Z,25.67
2018-08-11T05:41:01.408Z,25.71
2018-08-11T05:42:01.692Z,25.72
2018-08-11T05:43:01.422Z,25.66
2018-08-11T05:44:01.472Z,25.69
2018-08-11T05:45:01.534Z,25.78
2018-08-11T05:46:01.521Z,25.76
2018-08-11T05:47:01.612Z,25.79
2018-08-11T05:48:01.887Z,25.82
2018-08-11T05:49:01.672Z,25.78
2018-08-11T05:50:01.650Z,25.79
2018-08-11T05:51:01.677Z,25.79
2018-08-11T05:52:01.766Z,25.75
2018-08-11T05:53:01.742Z,25.82
2018-08-11T05:54:01.934Z,25.76
2018-08-11T05:55:02.118Z,25.81
2018-08-11T05:56:01.859Z,25.74
2018-08-11T05:57:01.878Z,25.75
2018-08-11T05:58:01.920Z,25.76
2018-08-11T05:59:01.993Z,25.78
2018-08-11T06:00:02.027Z,25.78
2018-08-11T06:01:02.059Z,25.74
2018-08-11T06:02:02.356Z,25.82
2018-08-11T06:03:02.074Z,25.78
2018-08-11T06:04:02.202Z,25.85
2018-08-11T06:05:02.135Z,25.82
2018-08-11T06:06:02.163Z,25.75
2018-08-11T06:07:02.254Z,25.81
2018-08-11T06:08:02.288Z,25.89
2018-08-11T06:09:02.568Z,25.86
2018-08-11T06:10:02.351Z,25.83
2018-08-11T06:11:02.337Z,25.81
2018-08-11T06:12:02.408Z,25.86
2018-08-11T06:13:02.447Z,25.81
2018-08-11T06:14:02.430Z,25.81
2018-08-11T06:15:02.514Z,25.82
2018-08-11T06:16:02.801Z,25.93
2018-08-11T06:17:02.577Z,25.82
2018-08-11T06:18:02.565Z,25.83
2018-08-11T06:19:02.592Z,25.90
2018-08-11T06:20:02.672Z,25.79
2018-08-11T06:21:02.719Z,25.86
2018-08-11T06:22:02.741Z,25.93
2018-08-11T06:23:03.030Z,25.93
2018-08-11T06:24:02.753Z,25.83
2018-08-11T06:25:02.839Z,25.91
2018-08-11T06:26:02.867Z,25.98
2018-08-11T06:27:02.854Z,26.00
2018-08-11T06:28:02.942Z,25.96
2018-08-11T06:29:02.962Z,25.93
2018-08-11T06:30:03.253Z,25.85
2018-08-11T06:31:02.977Z,26.04
2018-08-11T06:32:03.057Z,25.97
2018-08-11T06:33:03.111Z,25.94
2018-08-11T06:34:03.132Z,26.01
2018-08-11T06:35:03.160Z,26.04
2018-08-11T06:36:03.139Z,26.00
2018-08-11T06:37:03.228Z,26.00
2018-08-11T06:38:03.222Z,26.01
2018-08-11T06:39:03.293Z,26.03
2018-08-11T06:40:03.327Z,26.01
2018-08-11T06:41:03.487Z,26.04
2018-08-11T06:42:03.356Z,26.06
2018-08-11T06:43:03.679Z,25.97
2018-08-11T06:44:03.468Z,26.01
2018-08-11T06:45:03.439Z,26.03
2018-08-11T06:46:03.485Z,26.03
2018-08-11T06:47:03.592Z,25.97
2018-08-11T06:48:03.545Z,26.06
2018-08-11T06:49:03.618Z,26.04
2018-08-11T06:50:03.603Z,26.04
2018-08-11T06:51:03.839Z,26.11
2018-08-11T06:52:03.892Z,26.03
2018-08-11T06:53:04.470Z,25.98
2018-08-11T06:54:04.135Z,26.11
2018-08-11T06:55:04.584Z,26.04
2018-08-11T06:56:04.084Z,26.09
2018-08-11T06:57:03.875Z,26.09
2018-08-11T06:58:03.917Z,26.09
2018-08-11T06:59:03.901Z,26.19
2018-08-11T07:00:03.925Z,26.13
2018-08-11T07:01:04.255Z,26.17
2018-08-11T07:02:04.044Z,26.08
2018-08-11T07:03:04.071Z,26.13
2018-08-11T07:04:04.105Z,26.21
2018-08-11T07:05:04.142Z,26.12
2018-08-11T07:06:04.131Z,26.21
2018-08-11T07:07:04.234Z,26.19
2018-08-11T07:08:04.245Z,26.21
2018-08-11T07:09:04.270Z,26.24
2018-08-11T07:10:04.249Z,26.20
2018-08-11T07:11:04.288Z,26.21
2018-08-11T07:12:04.322Z,26.23
2018-08-11T07:13:04.404Z,26.32
2018-08-11T07:14:04.431Z,26.20
2018-08-11T07:15:04.432Z,26.24
2018-08-11T07:16:04.452Z,26.24
2018-08-11T07:17:04.491Z,26.27
2018-08-11T07:18:04.572Z,26.23
2018-08-11T07:19:04.552Z,26.24
2018-08-11T07:20:04.885Z,26.23
2018-08-11T07:21:04.669Z,26.32
2018-08-11T07:22:04.645Z,26.24
2018-08-11T07:23:04.726Z,26.28
2018-08-11T07:24:04.710Z,26.35
2018-08-11T07:25:04.797Z,26.31
2018-08-11T07:26:04.780Z,26.20
2018-08-11T07:28:05.147Z,26.31
2018-08-11T07:29:04.876Z,26.24
2018-08-11T07:30:04.932Z,26.28
2018-08-11T07:31:04.947Z,26.29
2018-08-11T07:32:05.032Z,26.31
2018-08-11T07:33:05.063Z,26.32
2018-08-11T07:34:05.093Z,26.31
2018-08-11T07:35:05.393Z,26.31
2018-08-11T07:36:05.162Z,26.36
2018-08-11T07:37:05.200Z,26.32
2018-08-11T07:38:05.174Z,26.38
2018-08-11T07:39:05.263Z,26.32
2018-08-11T07:40:05.242Z,26.39
2018-08-11T07:41:05.332Z,26.36
2018-08-11T07:42:05.605Z,26.31
2018-08-11T07:43:05.389Z,26.36
2018-08-11T07:44:05.427Z,26.36
2018-08-11T07:45:05.456Z,26.38
2018-08-11T07:46:05.434Z,26.41
2018-08-11T07:47:05.473Z,26.44
2018-08-11T07:48:05.554Z,26.38
2018-08-11T07:49:05.834Z,26.42
2018-08-11T07:50:05.570Z,26.44
2018-08-11T07:51:05.602Z,26.50
2018-08-11T07:52:05.637Z,26.39
2018-08-11T07:53:05.720Z,26.49
2018-08-11T07:54:05.753Z,26.47
2018-08-11T07:55:05.736Z,26.42
2018-08-11T07:56:06.200Z,26.44
2018-08-11T07:57:05.802Z,26.44
2018-08-11T07:58:05.885Z,26.46
2018-08-11T07:59:05.870Z,26.49
2018-08-11T08:00:05.897Z,26.53
2018-08-11T08:01:05.985Z,26.54
2018-08-11T08:02:05.970Z,26.51
2018-08-11T08:03:06.362Z,26.51
2018-08-11T08:04:06.036Z,26.51
2018-08-11T08:05:06.061Z,26.49
2018-08-11T08:06:06.143Z,26.50
2018-08-11T08:07:06.133Z,26.56
2018-08-11T08:08:06.207Z,26.64
2018-08-11T08:09:06.256Z,26.66
2018-08-11T08:10:06.280Z,26.59
2018-08-11T08:11:06.264Z,26.60
2018-08-11T08:12:06.293Z,26.68
2018-08-11T08:13:06.381Z,26.65
2018-08-11T08:14:06.410Z,26.61
2018-08-11T08:15:06.392Z,26.68
2018-08-11T08:16:06.429Z,26.57
2018-08-11T08:17:06.464Z,26.65
2018-08-11T08:18:06.544Z,26.66
2018-08-11T08:19:06.591Z,26.61
2018-08-11T08:20:06.563Z,26.69
2018-08-11T08:21:06.658Z,26.73
2018-08-11T08:22:06.629Z,26.60
2018-08-11T08:23:06.666Z,26.72
2018-08-11T08:24:06.741Z,26.71
2018-08-11T08:25:06.780Z,26.73
2018-08-11T08:26:06.814Z,26.76
2018-08-11T08:27:06.849Z,26.76
2018-08-11T08:28:06.836Z,26.68
2018-08-11T08:29:06.912Z,26.72
2018-08-11T08:30:06.947Z,26.72
2018-08-11T08:31:06.924Z,26.81
2018-08-11T08:32:06.962Z,26.76
2018-08-11T08:33:07.298Z,26.72
2018-08-11T08:34:07.080Z,26.75
2018-08-11T08:35:07.115Z,26.84
2018-08-11T08:36:07.090Z,26.79
2018-08-11T08:37:07.178Z,26.78
2018-08-11T08:38:07.169Z,26.76
2018-08-11T08:39:07.189Z,26.83
2018-08-11T08:40:07.281Z,26.79
2018-08-11T08:41:07.304Z,26.84
2018-08-11T08:42:07.292Z,26.78
2018-08-11T08:43:07.323Z,26.84
2018-08-11T08:44:07.403Z,26.84
2018-08-11T08:45:07.393Z,26.83
2018-08-11T08:46:07.725Z,26.86
2018-08-11T08:47:07.460Z,26.88
2018-08-11T08:48:07.500Z,26.94
2018-08-11T08:49:07.578Z,26.79
2018-08-11T08:50:07.606Z,26.83
2018-08-11T08:51:07.592Z,26.94
2018-08-11T08:52:07.974Z,26.83
2018-08-11T08:53:07.716Z,26.87
2018-08-11T08:54:07.693Z,26.90
2018-08-11T08:55:07.777Z,26.91
2018-08-11T08:56:07.757Z,26.91
2018-08-11T08:57:07.841Z,26.88
2018-08-11T08:58:07.875Z,26.90
2018-08-11T08:59:07.930Z,26.88
2018-08-11T09:00:07.887Z,26.88
2018-08-11T09:01:07.973Z,26.93
2018-08-11T09:02:07.953Z,26.87
2018-08-11T09:03:08.055Z,26.93
2018-08-11T09:04:08.321Z,26.91
2018-08-11T09:05:08.112Z,26.91
2018-08-11T09:06:08.093Z,26.94
2018-08-11T09:07:08.127Z,26.94
2018-08-11T09:08:08.221Z,27.01
2018-08-11T09:09:08.252Z,26.97
2018-08-11T09:10:08.221Z,26.97
2018-08-11T09:11:08.310Z,26.94
2018-08-11T09:12:08.290Z,26.96
2018-08-11T09:13:08.378Z,26.94
2018-08-11T09:14:08.403Z,26.93
2018-08-11T09:15:08.393Z,27.01
2018-08-11T09:16:08.421Z,26.98
2018-08-11T09:17:08.769Z,27.03
2018-08-11T09:19:08.582Z,26.91
2018-08-11T09:20:08.564Z,26.93
2018-08-11T09:21:08.656Z,27.03
2018-08-11T09:22:08.626Z,27.01
2018-08-11T09:23:08.654Z,26.98
2018-08-11T09:24:09.046Z,26.94
2018-08-11T09:25:08.770Z,27.01
2018-08-11T09:26:08.758Z,26.94
2018-08-11T09:27:08.798Z,27.03
2018-08-11T09:28:08.874Z,26.98
2018-08-11T09:29:08.970Z,27.05
2018-08-11T09:30:08.954Z,27.02
2018-08-11T09:31:08.923Z,26.98
2018-08-11T09:32:08.959Z,26.97
2018-08-11T09:33:09.038Z,27.01
2018-08-11T09:34:09.080Z,26.96
2018-08-11T09:35:09.056Z,27.01
2018-08-11T09:36:09.141Z,27.02
2018-08-11T09:37:09.427Z,26.97
2018-08-11T09:38:09.210Z,27.08
2018-08-11T09:39:09.242Z,27.09
2018-08-11T09:40:09.226Z,27.08
2018-08-11T09:41:09.306Z,27.01
2018-08-11T09:42:09.294Z,27.01
2018-08-11T09:44:09.415Z,27.06
2018-08-11T09:45:09.447Z,27.05
2018-08-11T09:46:09.465Z,27.01
2018-08-11T09:47:09.460Z,27.01
2018-08-11T09:48:09.494Z,27.13
2018-08-11T09:49:09.875Z,27.08
2018-08-11T09:50:09.626Z,27.03
2018-08-11T09:51:09.602Z,27.09
2018-08-11T09:52:09.663Z,27.02
2018-08-11T09:53:09.667Z,27.09
2018-08-11T09:54:09.746Z,27.08
2018-08-11T09:55:10.025Z,27.06
2018-08-11T09:56:09.758Z,27.02
2018-08-11T09:57:09.861Z,27.12
2018-08-11T09:58:09.829Z,27.05
2018-08-11T09:59:10.014Z,27.08
2018-08-11T10:00:09.893Z,27.08
2018-08-11T10:01:09.984Z,27.11
2018-08-11T10:02:10.271Z,27.16
2018-08-11T10:03:09.997Z,27.21
2018-08-11T10:04:10.090Z,27.18
2018-08-11T10:05:10.173Z,27.12
2018-08-11T10:06:10.157Z,27.16
2018-08-11T10:07:10.137Z,27.16
2018-08-11T10:08:10.219Z,27.20
2018-08-11T10:09:10.506Z,27.18
2018-08-11T10:10:10.285Z,27.23
2018-08-11T10:11:10.319Z,27.23
2018-08-11T10:12:10.303Z,27.25
2018-08-11T10:13:10.366Z,27.15
2018-08-11T10:14:10.514Z,27.16
2018-08-11T10:15:10.450Z,27.15
2018-08-11T10:16:10.809Z,27.18
2018-08-11T10:17:10.537Z,27.21
2018-08-11T10:18:10.516Z,27.18
2018-08-11T10:19:10.549Z,27.23
2018-08-11T10:20:10.631Z,27.16
2018-08-11T10:21:10.609Z,27.23
2018-08-11T10:22:10.691Z,27.20
2018-08-11T10:23:10.733Z,27.21
2018-08-11T10:24:10.707Z,27.23
2018-08-11T10:25:10.842Z,27.28
2018-08-11T10:26:10.884Z,27.31
2018-08-11T10:27:10.817Z,27.31
2018-08-11T10:28:10.845Z,27.31
2018-08-11T10:29:11.183Z,27.28
2018-08-11T10:30:10.984Z,27.28
2018-08-11T10:31:10.989Z,27.31
2018-08-11T10:32:10.987Z,27.34
2018-08-11T10:33:11.086Z,27.27
2018-08-11T10:34:11.056Z,27.40
2018-08-11T10:36:11.183Z,27.30
2018-08-11T10:37:11.457Z,27.39
2018-08-11T10:38:11.241Z,27.38
2018-08-11T10:39:11.271Z,27.40
2018-08-11T10:40:11.455Z,27.42
2018-08-11T10:41:11.337Z,27.35
2018-08-11T10:42:11.379Z,27.38
2018-08-11T10:43:11.356Z,27.38
2018-08-11T10:44:11.738Z,27.38
2018-08-11T10:45:11.519Z,27.38
2018-08-11T10:46:11.457Z,27.38
2018-08-11T10:47:11.610Z,27.38
2018-08-11T10:48:11.524Z,27.43
2018-08-11T10:49:11.565Z,27.46
2018-08-11T10:50:11.604Z,27.42
2018-08-11T10:51:11.927Z,27.39
2018-08-11T10:52:11.710Z,27.42
2018-08-11T10:53:11.741Z,27.42
2018-08-11T10:54:11.777Z,27.46
2018-08-11T10:55:11.803Z,27.45
2018-08-11T10:56:11.802Z,27.43
2018-08-11T10:57:11.879Z,27.43
2018-08-11T10:58:12.171Z,27.39
2018-08-11T10:59:11.894Z,27.35
2018-08-11T11:00:11.934Z,27.43
2018-08-11T11:01:12.022Z,27.50
2018-08-11T11:02:12.046Z,27.48
2018-08-11T11:03:12.081Z,27.40
2018-08-11T11:04:12.070Z,27.46
2018-08-11T11:05:12.405Z,27.45
2018-08-11T11:06:12.137Z,27.40
2018-08-11T11:07:12.525Z,27.43
2018-08-11T11:08:12.264Z,27.48
2018-08-11T11:09:12.297Z,27.46
2018-08-11T11:10:12.276Z,27.43
2018-08-11T11:11:12.605Z,27.48
2018-08-11T11:12:12.396Z,27.46
2018-08-11T11:13:12.479Z,27.52
2018-08-11T11:14:12.477Z,27.50
2018-08-11T11:15:12.447Z,27.46
2018-08-11T11:16:12.482Z,27.46
2018-08-11T11:17:12.865Z,27.49
2018-08-11T11:18:12.597Z,27.55
2018-08-11T11:19:12.578Z,27.53
2018-08-11T11:20:12.616Z,27.50
2018-08-11T11:21:12.703Z,27.55
2018-08-11T11:22:12.736Z,27.55
2018-08-11T11:23:13.014Z,27.53
2018-08-11T11:24:12.819Z,27.49
2018-08-11T11:25:12.787Z,27.50
2018-08-11T11:26:13.182Z,27.52
2018-08-11T11:27:12.910Z,27.53
2018-08-11T11:28:12.941Z,27.58
2018-08-11T11:29:12.971Z,27.53
2018-08-11T11:30:13.255Z,27.46
2018-08-11T11:31:12.990Z,27.55
2018-08-11T11:32:13.081Z,27.50
2018-08-11T11:33:13.115Z,27.53
2018-08-11T11:34:13.147Z,27.52
2018-08-11T11:35:13.126Z,27.58
2018-08-11T11:36:13.170Z,27.48
2018-08-11T11:37:13.505Z,27.53
2018-08-11T11:38:13.232Z,27.52
2018-08-11T11:39:13.322Z,27.50
2018-08-11T11:40:13.301Z,27.58
2018-08-11T11:41:13.380Z,27.48
2018-08-11T11:42:13.371Z,27.50
2018-08-11T11:43:13.434Z,27.58
2018-08-11T11:44:13.736Z,27.49
2018-08-11T11:45:13.533Z,27.58
2018-08-11T11:46:13.604Z,27.58
2018-08-11T11:47:13.588Z,27.52
2018-08-11T11:48:13.574Z,27.50
2018-08-11T11:49:13.664Z,27.53
2018-08-11T11:50:13.652Z,27.59
2018-08-11T11:51:13.986Z,27.61
2018-08-11T11:52:13.716Z,27.58
2018-08-11T11:53:13.806Z,27.52
2018-08-11T11:54:13.837Z,27.55
2018-08-11T11:55:13.813Z,27.50
2018-08-11T11:56:13.852Z,27.58
2018-08-11T11:57:13.941Z,27.52
2018-08-11T11:58:14.272Z,27.55
2018-08-11T11:59:13.958Z,27.61
2018-08-11T12:00:13.988Z,27.62
2018-08-11T12:01:14.081Z,27.68
2018-08-11T12:02:14.052Z,27.55
2018-08-11T12:03:14.167Z,27.65
2018-08-11T12:04:14.154Z,27.65
2018-08-11T12:05:14.470Z,27.61
2018-08-11T12:06:14.292Z,27.61
2018-08-11T12:07:15.126Z,27.65
2018-08-11T12:08:14.320Z,27.69
2018-08-11T12:09:14.366Z,27.62
2018-08-11T12:10:14.382Z,27.66
2018-08-11T12:11:14.418Z,27.72
2018-08-11T12:12:14.705Z,27.63
2018-08-11T12:13:14.435Z,27.66
2018-08-11T12:14:14.530Z,27.65
2018-08-11T12:15:14.509Z,27.62
2018-08-11T12:16:14.547Z,27.63
2018-08-11T12:17:14.617Z,27.65
2018-08-11T12:18:14.622Z,27.68
2018-08-11T12:19:14.947Z,27.68
2018-08-11T12:20:14.678Z,27.65
2018-08-11T12:21:14.774Z,27.66
2018-08-11T12:22:14.745Z,27.63
2018-08-11T12:23:14.830Z,27.65
2018-08-11T12:24:14.819Z,27.63
2018-08-11T12:25:14.904Z,27.69
2018-08-11T12:26:14.935Z,27.69
2018-08-11T12:27:14.979Z,27.69
2018-08-11T12:28:15.017Z,27.71
2018-08-11T12:29:15.042Z,27.74
2018-08-11T12:30:15.074Z,27.76
2018-08-11T12:31:15.080Z,27.68
2018-08-11T12:32:15.096Z,27.68
2018-08-11T12:33:15.126Z,27.74
2018-08-11T12:34:15.216Z,27.68
2018-08-11T12:35:15.201Z,27.68
2018-08-11T12:36:15.275Z,27.72
2018-08-11T12:37:15.316Z,27.77
2018-08-11T12:38:15.597Z,27.78
2018-08-11T12:39:15.329Z,27.68
2018-08-11T12:40:15.372Z,27.71
2018-08-11T12:41:15.448Z,27.71
2018-08-11T12:42:15.481Z,27.68
2018-08-11T12:43:15.470Z,27.72
2018-08-11T12:44:15.801Z,27.72
2018-08-11T12:45:15.535Z,27.74
2018-08-11T12:46:15.727Z,27.76
2018-08-11T12:47:15.608Z,27.69
2018-08-11T12:48:15.643Z,27.71
2018-08-11T12:49:15.726Z,27.72
2018-08-11T12:50:16.015Z,27.69
2018-08-11T12:51:15.799Z,27.66
2018-08-11T12:52:15.781Z,27.66
2018-08-11T12:53:15.861Z,27.66
2018-08-11T12:54:15.848Z,27.72
2018-08-11T12:55:15.935Z,27.72
2018-08-11T12:56:15.972Z,27.72
2018-08-11T12:58:15.987Z,27.72
2018-08-11T12:59:16.025Z,27.77